createdAt,value
2023-11-30T00:00:09.402Z,-1.70
2023-11-30T00:02:35.868Z,-1.58
2023-11-30T00:05:02.384Z,-1.34
2023-11-30T00:07:28.799Z,-1.27
2023-11-30T00:09:55.332Z,-1.35
2023-11-30T00:12:21.890Z,-1.52
2023-11-30T00:14:48.429Z,-1.37
2023-11-30T00:17:14.974Z,-1.33
2023-11-30T00:19:41.467Z,-1.27
2023-11-30T00:22:08.325Z,-1.27
2023-11-30T00:24:34.816Z,-1.15
2023-11-30T00:27:01.327Z,-1.11
2023-11-30T00:29:27.815Z,-0.93
2023-11-30T00:31:54.710Z,-0.90
2023-11-30T00:34:21.320Z,-1.12
2023-11-30T00:36:47.821Z,-1.39
2023-11-30T00:39:14.354Z,-1.41
2023-11-30T00:41:40.825Z,-1.59
2023-11-30T00:44:07.672Z,-1.54
2023-11-30T00:46:34.290Z,-1.23
2023-11-30T00:49:00.794Z,-1.44
2023-11-30T00:51:27.926Z,-1.42
2023-11-30T00:53:54.493Z,-1.15
2023-11-30T00:56:21.019Z,-1.11
2023-11-30T00:58:47.525Z,-1.22
2023-11-30T01:01:14.109Z,-1.20
2023-11-30T01:03:40.748Z,-1.21
2023-11-30T01:06:07.631Z,-1.22
2023-11-30T01:08:34.238Z,-1.03
2023-11-30T01:11:03.219Z,-1.05
2023-11-30T01:13:29.753Z,-0.96
2023-11-30T01:15:56.663Z,-0.60
2023-11-30T01:18:23.236Z,-0.85
2023-11-30T01:20:50.579Z,-1.01
2023-11-30T01:23:17.173Z,-1.18
2023-11-30T01:25:43.674Z,-1.22
2023-11-30T01:28:10.190Z,-1.21
2023-11-30T01:30:39.697Z,-1.01
2023-11-30T01:33:06.292Z,-1.16
2023-11-30T01:35:33.028Z,-1.09
2023-11-30T01:37:59.502Z,-0.98
2023-11-30T01:40:28.227Z,-1.22
2023-11-30T01:42:54.679Z,-0.89
2023-11-30T01:45:21.174Z,-0.91
2023-11-30T01:47:48.621Z,-0.90
2023-11-30T01:50:15.893Z,-0.98
2023-11-30T01:52:42.759Z,-0.94
2023-11-30T01:55:12.100Z,-0.92
2023-11-30T01:57:40.024Z,-0.94
2023-11-30T02:00:07.915Z,-1.11
2023-11-30T02:02:39.306Z,-1.46
2023-11-30T02:05:07.456Z,-1.39
2023-11-30T02:07:33.938Z,-1.15
2023-11-30T02:10:00.465Z,-1.13
2023-11-30T02:12:27.196Z,-0.97
2023-11-30T02:14:53.755Z,-0.72
2023-11-30T02:17:20.259Z,-0.45
2023-11-30T02:19:46.690Z,-0.55
2023-11-30T02:22:15.103Z,-0.70
2023-11-30T02:24:41.548Z,-0.82
2023-11-30T02:27:08.049Z,-0.86
2023-11-30T02:29:34.643Z,-0.95
2023-11-30T02:32:01.168Z,-0.88
2023-11-30T02:34:27.941Z,-1.01
2023-11-30T02:36:54.434Z,-0.97
2023-11-30T02:39:21.125Z,-0.91
2023-11-30T02:41:47.641Z,-0.94
2023-11-30T02:44:14.175Z,-0.92
2023-11-30T02:46:41.005Z,-0.95
2023-11-30T02:49:07.529Z,-0.91
2023-11-30T02:51:34.559Z,-0.91
2023-11-30T02:54:01.142Z,-1.01
2023-11-30T02:56:27.684Z,-0.89
2023-11-30T02:58:54.161Z,-0.98
2023-11-30T03:01:20.677Z,-1.10
2023-11-30T03:03:47.833Z,-0.88
2023-11-30T03:06:16.310Z,-1.01
2023-11-30T03:08:43.721Z,-1.09
2023-11-30T03:11:10.194Z,-1.00
2023-11-30T03:13:36.671Z,-0.90
2023-11-30T03:16:03.346Z,-0.92
2023-11-30T03:18:29.990Z,-0.74
2023-11-30T03:20:56.580Z,-0.97
2023-11-30T03:23:23.085Z,-0.78
2023-11-30T03:25:49.565Z,-0.88
2023-11-30T03:28:16.205Z,-0.80
2023-11-30T03:30:42.819Z,-0.74
2023-11-30T03:33:09.345Z,-0.74
2023-11-30T03:35:35.876Z,-1.06
2023-11-30T03:38:04.040Z,-0.63
2023-11-30T03:40:30.475Z,-0.50
2023-11-30T03:42:56.969Z,-0.45
2023-11-30T03:45:23.500Z,-0.41
2023-11-30T03:47:50.056Z,-0.34
2023-11-30T03:50:16.502Z,-0.34
2023-11-30T03:52:43.566Z,-0.18
2023-11-30T03:55:10.103Z,-0.12
2023-11-30T03:57:36.860Z,-0.07
2023-11-30T04:00:03.684Z,-0.06
2023-11-30T04:02:30.982Z,-0.02
2023-11-30T04:04:57.605Z,0.04
2023-11-30T04:07:24.106Z,0.04
2023-11-30T04:09:50.751Z,0.02
2023-11-30T04:12:17.235Z,0.08
2023-11-30T04:14:43.694Z,0.12
2023-11-30T04:17:10.170Z,0.15
2023-11-30T04:19:36.733Z,0.15
2023-11-30T04:22:03.386Z,0.22
2023-11-30T04:24:29.929Z,0.34
2023-11-30T04:26:56.464Z,0.46
2023-11-30T04:29:22.954Z,0.41
2023-11-30T04:31:49.518Z,0.26
2023-11-30T04:34:15.996Z,0.30
2023-11-30T04:36:42.438Z,0.51
2023-11-30T04:39:09.000Z,0.25
2023-11-30T04:41:35.529Z,0.48
2023-11-30T04:44:02.489Z,0.58
2023-11-30T04:46:29.042Z,0.40
2023-11-30T04:48:55.770Z,0.26
2023-11-30T04:51:25.014Z,0.43
2023-11-30T04:53:51.687Z,0.51
2023-11-30T04:56:18.118Z,0.56
2023-11-30T04:58:45.448Z,0.67
2023-11-30T05:01:11.883Z,0.59
2023-11-30T05:03:38.621Z,0.68
2023-11-30T05:06:05.707Z,0.69
2023-11-30T05:08:32.436Z,0.77
2023-11-30T05:10:59.926Z,0.87
2023-11-30T05:13:26.428Z,0.73
2023-11-30T05:15:52.887Z,0.58
2023-11-30T05:18:19.478Z,0.75
2023-11-30T05:20:46.149Z,0.61
2023-11-30T05:23:12.776Z,0.64
2023-11-30T05:25:39.296Z,0.61
2023-11-30T05:28:06.148Z,0.52
2023-11-30T05:30:32.722Z,0.47
2023-11-30T05:32:59.310Z,0.46
2023-11-30T05:35:25.897Z,0.36
2023-11-30T05:37:52.351Z,0.35
2023-11-30T05:40:18.886Z,0.41
2023-11-30T05:42:45.348Z,0.37
2023-11-30T05:45:11.949Z,0.29
2023-11-30T05:47:38.410Z,0.30
2023-11-30T05:50:05.981Z,0.34
2023-11-30T05:52:32.595Z,0.33
2023-11-30T05:54:59.170Z,0.39
2023-11-30T05:57:25.749Z,0.24
2023-11-30T05:59:52.858Z,0.23
2023-11-30T06:02:19.927Z,0.25
2023-11-30T06:04:50.870Z,0.27
2023-11-30T06:07:18.598Z,0.35
2023-11-30T06:09:45.235Z,0.33
2023-11-30T06:12:11.843Z,0.23
2023-11-30T06:14:38.851Z,0.24
2023-11-30T06:17:05.581Z,0.29
2023-11-30T06:19:32.217Z,0.27
2023-11-30T06:21:58.697Z,0.21
2023-11-30T06:24:25.171Z,0.23
2023-11-30T06:26:51.726Z,0.24
2023-11-30T06:29:18.468Z,0.09
2023-11-30T06:31:45.289Z,0.16
2023-11-30T06:34:12.814Z,0.15
2023-11-30T06:36:39.381Z,0.04
2023-11-30T06:39:06.067Z,0.17
2023-11-30T06:41:32.740Z,0.13
2023-11-30T06:43:59.196Z,0.24
2023-11-30T06:46:25.731Z,0.28
2023-11-30T06:48:52.705Z,0.26
2023-11-30T06:51:19.374Z,0.16
2023-11-30T06:53:45.902Z,0.24
2023-11-30T06:56:13.207Z,0.22
2023-11-30T06:58:40.156Z,0.25
2023-11-30T07:01:07.567Z,0.28
2023-11-30T07:03:34.437Z,0.21
2023-11-30T07:06:10.302Z,0.29
2023-11-30T07:08:37.689Z,0.35
2023-11-30T07:11:08.760Z,0.29
2023-11-30T07:13:35.308Z,0.33
2023-11-30T07:16:01.872Z,0.36
2023-11-30T07:18:28.564Z,0.35
2023-11-30T07:20:55.096Z,0.42
2023-11-30T07:23:21.556Z,0.39
2023-11-30T07:25:48.055Z,0.48
2023-11-30T07:28:14.578Z,0.55
2023-11-30T07:30:41.694Z,0.45
2023-11-30T07:33:12.220Z,0.56
2023-11-30T07:35:39.770Z,0.56
2023-11-30T07:38:06.978Z,0.62
2023-11-30T07:40:33.425Z,0.59
2023-11-30T07:43:00.869Z,0.58
2023-11-30T07:45:29.136Z,0.56
2023-11-30T07:47:55.696Z,0.54
2023-11-30T07:50:22.158Z,0.53
2023-11-30T07:52:48.622Z,0.49
2023-11-30T07:55:15.279Z,0.49
2023-11-30T07:57:41.810Z,0.66
2023-11-30T08:00:08.645Z,0.66
2023-11-30T08:02:35.103Z,0.62
2023-11-30T08:05:01.933Z,0.55
2023-11-30T08:07:28.545Z,0.53
2023-11-30T08:09:55.368Z,0.61
2023-11-30T08:12:21.815Z,0.61
2023-11-30T08:14:48.260Z,0.67
2023-11-30T08:17:14.788Z,0.75
2023-11-30T08:19:41.699Z,0.61
2023-11-30T08:22:08.567Z,0.69
2023-11-30T08:24:46.758Z,0.68
2023-11-30T08:27:13.572Z,0.76
2023-11-30T08:29:40.126Z,0.80
2023-11-30T08:32:07.190Z,0.76
2023-11-30T08:34:33.885Z,0.78
2023-11-30T08:37:00.563Z,0.70
2023-11-30T08:39:28.535Z,0.78
2023-11-30T08:41:55.205Z,0.67
2023-11-30T08:44:24.524Z,0.71
2023-11-30T08:46:51.614Z,0.73
2023-11-30T08:49:18.131Z,0.80
2023-11-30T08:51:45.904Z,0.75
2023-11-30T08:54:12.786Z,0.92
2023-11-30T08:56:39.397Z,0.89
2023-11-30T08:59:05.934Z,1.02
2023-11-30T09:01:32.511Z,1.02
2023-11-30T09:04:02.340Z,1.03
2023-11-30T09:06:28.921Z,0.93
2023-11-30T09:08:55.454Z,0.83
2023-11-30T09:11:22.226Z,0.88
2023-11-30T09:13:48.724Z,1.02
2023-11-30T09:16:15.694Z,1.05
2023-11-30T09:18:42.365Z,0.96
2023-11-30T09:21:09.101Z,0.92
2023-11-30T09:23:35.717Z,0.96
2023-11-30T09:26:08.743Z,0.94
2023-11-30T09:28:35.359Z,0.81
2023-11-30T09:31:05.530Z,0.87
2023-11-30T09:33:32.033Z,0.94
2023-11-30T09:35:59.261Z,1.04
2023-11-30T09:38:26.424Z,1.02
2023-11-30T09:40:53.224Z,0.94
2023-11-30T09:43:20.675Z,1.04
2023-11-30T09:45:49.029Z,1.15
2023-11-30T09:48:15.838Z,1.11
2023-11-30T09:50:42.541Z,0.93
2023-11-30T09:53:09.843Z,1.09
2023-11-30T09:55:36.476Z,1.05
2023-11-30T09:58:03.730Z,1.20
2023-11-30T10:00:30.806Z,0.97
2023-11-30T10:02:57.807Z,1.07
2023-11-30T10:05:26.593Z,1.10
2023-11-30T10:07:53.376Z,0.97
2023-11-30T10:10:20.072Z,0.95
2023-11-30T10:12:46.945Z,1.03
2023-11-30T10:15:13.448Z,1.15
2023-11-30T10:17:40.017Z,1.31
2023-11-30T10:20:07.150Z,1.31
2023-11-30T10:22:33.675Z,1.25
2023-11-30T10:25:00.199Z,1.36
2023-11-30T10:27:31.097Z,1.37
2023-11-30T10:30:01.513Z,1.34
2023-11-30T10:32:28.110Z,1.35
2023-11-30T10:34:58.139Z,1.28
2023-11-30T10:37:27.421Z,1.41
2023-11-30T10:40:02.221Z,1.28
2023-11-30T10:42:28.982Z,1.20
2023-11-30T10:45:00.469Z,1.19
2023-11-30T10:47:29.178Z,1.24
2023-11-30T10:49:56.717Z,1.13
2023-11-30T10:52:23.666Z,1.18
2023-11-30T10:55:09.961Z,1.23
2023-11-30T10:57:36.611Z,1.35
2023-11-30T11:00:03.657Z,1.49
2023-11-30T11:02:37.374Z,1.38
2023-11-30T11:05:08.491Z,1.10
2023-11-30T11:07:35.447Z,1.19
2023-11-30T11:10:03.745Z,1.24
2023-11-30T11:12:35.063Z,1.25
2023-11-30T11:15:09.247Z,1.33
2023-11-30T11:17:57.270Z,1.46
2023-11-30T11:20:31.452Z,1.46
2023-11-30T11:23:08.602Z,1.45
2023-11-30T11:25:41.093Z,1.41
2023-11-30T11:28:07.994Z,1.31
2023-11-30T11:30:45.596Z,1.39
2023-11-30T11:33:12.299Z,1.54
2023-11-30T11:35:38.911Z,1.49
2023-11-30T11:38:05.425Z,1.56
2023-11-30T11:40:31.872Z,1.44
2023-11-30T11:42:59.546Z,1.50
2023-11-30T11:45:26.458Z,1.32
2023-11-30T11:47:53.082Z,1.58
2023-11-30T11:50:19.620Z,1.45
2023-11-30T11:52:46.190Z,1.54
2023-11-30T11:55:12.659Z,1.48
2023-11-30T11:57:41.292Z,1.41
2023-11-30T12:00:10.169Z,1.47
2023-11-30T12:02:37.476Z,1.11
2023-11-30T12:05:08.638Z,1.13
2023-11-30T12:07:35.347Z,1.03
2023-11-30T12:10:01.941Z,1.25
2023-11-30T12:12:32.818Z,1.44
2023-11-30T12:14:59.592Z,1.43
2023-11-30T12:17:26.152Z,1.49
2023-11-30T12:19:53.092Z,1.44
2023-11-30T12:22:19.525Z,1.59
2023-11-30T12:24:46.085Z,1.62
2023-11-30T12:27:12.631Z,1.65
2023-11-30T12:29:39.209Z,1.65
2023-11-30T12:32:06.034Z,1.52
2023-11-30T12:34:32.562Z,1.42
2023-11-30T12:36:59.133Z,1.47
2023-11-30T12:39:25.639Z,1.39
2023-11-30T12:41:52.391Z,1.38
2023-11-30T12:44:18.887Z,1.38
2023-11-30T12:46:45.389Z,1.21
2023-11-30T12:49:12.002Z,1.24
2023-11-30T12:51:38.603Z,1.15
2023-11-30T12:54:05.150Z,1.28
2023-11-30T12:56:31.615Z,1.20
2023-11-30T12:58:58.371Z,1.24
2023-11-30T13:01:24.923Z,1.14
2023-11-30T13:03:51.906Z,1.01
2023-11-30T13:06:18.612Z,1.02
2023-11-30T13:08:45.190Z,1.41
2023-11-30T13:11:11.673Z,1.25
2023-11-30T13:13:42.446Z,1.27
2023-11-30T13:16:11.731Z,1.35
2023-11-30T13:18:38.566Z,1.27
2023-11-30T13:21:05.399Z,1.20
2023-11-30T13:23:31.919Z,1.20
2023-11-30T13:25:58.332Z,1.27
2023-11-30T13:28:24.849Z,1.29
2023-11-30T13:30:52.228Z,1.16
2023-11-30T13:33:19.239Z,1.06
2023-11-30T13:35:46.271Z,1.00
2023-11-30T13:38:12.803Z,1.12
2023-11-30T13:40:39.407Z,1.10
2023-11-30T13:43:06.653Z,0.99
2023-11-30T13:45:33.181Z,0.93
2023-11-30T13:47:59.828Z,1.02
2023-11-30T13:50:31.182Z,1.17
2023-11-30T13:53:03.929Z,1.31
2023-11-30T13:55:30.784Z,1.31
2023-11-30T13:57:58.104Z,1.27
2023-11-30T14:00:24.771Z,1.22
2023-11-30T14:02:51.575Z,1.38
2023-11-30T14:05:18.261Z,1.29
2023-11-30T14:07:44.786Z,1.15
2023-11-30T14:10:11.272Z,1.13
2023-11-30T14:12:37.788Z,1.03
2023-11-30T14:15:09.417Z,1.02
2023-11-30T14:17:35.957Z,1.00
2023-11-30T14:20:02.495Z,0.94
2023-11-30T14:22:32.447Z,0.91
2023-11-30T14:24:59.773Z,0.90
2023-11-30T14:27:26.371Z,1.05
2023-11-30T14:29:53.251Z,1.13
2023-11-30T14:32:19.755Z,1.03
2023-11-30T14:34:46.997Z,1.10
2023-11-30T14:37:14.195Z,1.19
2023-11-30T14:39:40.677Z,1.21
2023-11-30T14:42:07.309Z,1.13
2023-11-30T14:44:34.007Z,1.16
2023-11-30T14:47:00.505Z,1.13
2023-11-30T14:49:27.037Z,1.08
2023-11-30T14:51:53.585Z,1.12
2023-11-30T14:54:20.497Z,1.07
2023-11-30T14:56:47.014Z,1.18
2023-11-30T14:59:13.880Z,1.06
2023-11-30T15:01:40.449Z,1.02
2023-11-30T15:04:07.102Z,0.99
2023-11-30T15:06:34.065Z,1.20
2023-11-30T15:09:00.534Z,1.12
2023-11-30T15:11:26.979Z,1.04
2023-11-30T15:13:53.438Z,1.21
2023-11-30T15:16:19.910Z,1.29
2023-11-30T15:18:46.433Z,1.19
2023-11-30T15:21:12.942Z,1.21
2023-11-30T15:23:39.424Z,1.23
2023-11-30T15:26:06.084Z,1.17
2023-11-30T15:28:34.940Z,1.25
2023-11-30T15:31:01.415Z,1.23
2023-11-30T15:33:27.974Z,1.27
2023-11-30T15:35:54.517Z,1.14
2023-11-30T15:38:34.507Z,1.42
2023-11-30T15:41:04.957Z,1.41
2023-11-30T15:43:31.450Z,1.35
2023-11-30T15:45:57.906Z,1.24
2023-11-30T15:48:24.432Z,1.26
2023-11-30T15:50:51.007Z,1.16
2023-11-30T15:53:17.404Z,1.16
2023-11-30T15:55:43.904Z,1.21
2023-11-30T15:58:10.394Z,1.24
2023-11-30T16:00:36.890Z,1.21
2023-11-30T16:03:03.633Z,1.22
2023-11-30T16:05:30.124Z,1.10
2023-11-30T16:07:56.559Z,1.29
2023-11-30T16:10:23.263Z,1.20
2023-11-30T16:12:49.799Z,1.16
2023-11-30T16:15:18.156Z,1.11
2023-11-30T16:17:44.950Z,1.04
2023-11-30T16:20:12.769Z,0.97
2023-11-30T16:22:40.656Z,0.98
2023-11-30T16:25:07.670Z,0.87
2023-11-30T16:27:34.283Z,0.82
2023-11-30T16:30:00.888Z,0.79
2023-11-30T16:32:27.455Z,0.89
2023-11-30T16:34:54.080Z,0.98
2023-11-30T16:37:20.731Z,0.91
2023-11-30T16:39:47.667Z,0.95
2023-11-30T16:42:14.588Z,0.96
2023-11-30T16:44:41.897Z,0.99
2023-11-30T16:47:08.714Z,1.00
2023-11-30T16:49:35.148Z,1.00
2023-11-30T16:52:01.610Z,1.00
2023-11-30T16:54:28.228Z,1.05
2023-11-30T16:56:54.661Z,1.09
2023-11-30T16:59:21.075Z,1.06
2023-11-30T17:01:47.594Z,0.90
2023-11-30T17:04:14.457Z,0.97
2023-11-30T17:06:41.333Z,1.01
2023-11-30T17:09:07.906Z,1.05
2023-11-30T17:11:34.359Z,0.99
2023-11-30T17:14:00.906Z,0.94
2023-11-30T17:16:27.455Z,1.04
2023-11-30T17:18:53.970Z,0.92
2023-11-30T17:21:20.507Z,0.90
2023-11-30T17:23:46.950Z,1.02
2023-11-30T17:26:13.792Z,1.08
2023-11-30T17:28:40.634Z,0.82
2023-11-30T17:31:07.663Z,0.87
2023-11-30T17:33:34.511Z,0.92
2023-11-30T17:36:01.218Z,0.97
2023-11-30T17:38:27.689Z,0.80
2023-11-30T17:40:54.127Z,1.00
2023-11-30T17:43:20.570Z,0.87
2023-11-30T17:45:47.105Z,0.91
2023-11-30T17:48:13.633Z,0.90
2023-11-30T17:50:40.090Z,0.87
2023-11-30T17:53:07.344Z,0.94
2023-11-30T17:55:33.820Z,0.76
2023-11-30T17:58:00.759Z,0.78
2023-11-30T18:00:30.031Z,0.86
2023-11-30T18:02:57.038Z,0.85
2023-11-30T18:05:23.628Z,0.67
2023-11-30T18:07:50.125Z,0.77
2023-11-30T18:10:16.627Z,0.67
2023-11-30T18:12:43.091Z,0.80
2023-11-30T18:15:09.856Z,0.67
2023-11-30T18:17:36.811Z,0.70
2023-11-30T18:20:03.525Z,0.68
2023-11-30T18:22:30.081Z,0.78
2023-11-30T18:24:56.670Z,0.82
2023-11-30T18:27:23.290Z,0.80
2023-11-30T18:29:49.875Z,0.65
2023-11-30T18:32:16.514Z,0.74
2023-11-30T18:34:42.951Z,0.70
2023-11-30T18:37:09.447Z,0.57
2023-11-30T18:39:35.916Z,0.62
2023-11-30T18:42:03.043Z,0.84
2023-11-30T18:44:29.484Z,0.84
2023-11-30T18:46:55.962Z,0.85
2023-11-30T18:49:22.498Z,0.95
2023-11-30T18:51:49.011Z,0.90
2023-11-30T18:54:17.166Z,1.02
2023-11-30T18:56:44.937Z,0.88
2023-11-30T18:59:13.031Z,0.99
2023-11-30T19:01:39.826Z,0.90
2023-11-30T19:04:06.402Z,0.96
2023-11-30T19:06:32.942Z,0.98
2023-11-30T19:08:59.608Z,0.94
2023-11-30T19:11:26.076Z,0.89
2023-11-30T19:13:53.095Z,0.92
2023-11-30T19:16:20.834Z,0.97
2023-11-30T19:18:47.914Z,0.68
2023-11-30T19:21:14.547Z,0.90
2023-11-30T19:23:41.002Z,0.73
2023-11-30T19:26:07.929Z,0.90
2023-11-30T19:28:35.432Z,0.88
2023-11-30T19:31:06.126Z,0.83
2023-11-30T19:33:32.923Z,0.70
2023-11-30T19:35:59.793Z,0.76
2023-11-30T19:38:26.247Z,0.85
2023-11-30T19:40:53.058Z,0.73
2023-11-30T19:43:19.507Z,0.91
2023-11-30T19:45:46.115Z,0.80
2023-11-30T19:48:12.648Z,0.79
2023-11-30T19:50:39.603Z,0.62
2023-11-30T19:53:06.032Z,0.75
2023-11-30T19:55:33.388Z,0.81
2023-11-30T19:57:59.923Z,0.74
2023-11-30T20:00:26.473Z,0.82
2023-11-30T20:02:52.995Z,0.75
2023-11-30T20:05:19.597Z,0.70
2023-11-30T20:07:46.089Z,0.61
2023-11-30T20:10:12.538Z,0.55
2023-11-30T20:12:41.142Z,0.65
2023-11-30T20:15:09.425Z,0.79
2023-11-30T20:17:36.006Z,0.90
2023-11-30T20:20:02.504Z,0.82
2023-11-30T20:22:29.086Z,0.75
2023-11-30T20:24:55.512Z,0.82
2023-11-30T20:27:22.122Z,0.79
2023-11-30T20:29:48.584Z,0.89
2023-11-30T20:32:15.218Z,0.91
2023-11-30T20:34:43.258Z,0.87
2023-11-30T20:37:09.932Z,0.79
2023-11-30T20:39:36.408Z,0.83
2023-11-30T20:42:02.913Z,0.78
2023-11-30T20:44:29.425Z,0.73
2023-11-30T20:46:55.868Z,0.77
2023-11-30T20:49:22.394Z,0.70
2023-11-30T20:51:48.966Z,0.76
2023-11-30T20:54:15.439Z,0.77
2023-11-30T20:56:42.043Z,0.71
2023-11-30T20:59:08.562Z,0.60
2023-11-30T21:01:35.246Z,0.67
2023-11-30T21:04:01.846Z,0.66
2023-11-30T21:06:28.399Z,0.51
2023-11-30T21:08:54.927Z,0.59
2023-11-30T21:11:21.423Z,0.59
2023-11-30T21:13:47.917Z,0.75
2023-11-30T21:16:18.092Z,0.68
2023-11-30T21:18:44.926Z,0.69
2023-11-30T21:21:11.496Z,0.65
2023-11-30T21:23:38.197Z,0.60
2023-11-30T21:26:04.941Z,0.61
2023-11-30T21:28:31.394Z,0.71
2023-11-30T21:30:57.884Z,0.80
2023-11-30T21:33:24.392Z,0.72
2023-11-30T21:35:50.915Z,0.78
2023-11-30T21:38:17.353Z,0.72
2023-11-30T21:40:43.940Z,0.66
2023-11-30T21:43:10.451Z,0.70
2023-11-30T21:45:36.970Z,0.69
2023-11-30T21:48:04.130Z,0.68
2023-11-30T21:50:30.887Z,0.71
2023-11-30T21:52:57.492Z,0.66
2023-11-30T21:55:24.072Z,0.55
2023-11-30T21:57:50.584Z,0.70
2023-11-30T22:00:17.526Z,0.66
2023-11-30T22:02:44.736Z,0.53
2023-11-30T22:05:15.683Z,0.49
2023-11-30T22:07:46.994Z,0.57
2023-11-30T22:10:13.548Z,0.62
2023-11-30T22:12:40.025Z,0.67
2023-11-30T22:15:07.036Z,0.59
2023-11-30T22:17:33.528Z,0.69
2023-11-30T22:20:00.204Z,0.77
2023-11-30T22:22:26.683Z,0.49
2023-11-30T22:24:53.175Z,0.50
2023-11-30T22:27:19.647Z,0.47
2023-11-30T22:29:46.200Z,0.43
2023-11-30T22:32:12.744Z,0.33
2023-11-30T22:34:39.209Z,0.29
2023-11-30T22:37:05.816Z,0.40
2023-11-30T22:39:32.413Z,0.28
2023-11-30T22:41:58.888Z,0.30
2023-11-30T22:44:25.438Z,0.18
2023-11-30T22:46:52.068Z,0.35
2023-11-30T22:49:19.551Z,0.40
2023-11-30T22:51:48.574Z,0.39
2023-11-30T22:54:15.549Z,0.43
2023-11-30T22:56:42.712Z,0.51
2023-11-30T22:59:09.322Z,0.73
2023-11-30T23:01:36.800Z,0.70
2023-11-30T23:04:04.237Z,0.62
2023-11-30T23:06:31.132Z,0.60
2023-11-30T23:08:57.767Z,0.65
2023-11-30T23:11:34.474Z,0.70
2023-11-30T23:14:01.595Z,0.74
2023-11-30T23:16:28.592Z,0.52
2023-11-30T23:18:55.200Z,0.60
2023-11-30T23:21:21.719Z,0.55
2023-11-30T23:23:48.225Z,0.58
2023-11-30T23:26:14.706Z,0.51
2023-11-30T23:28:41.407Z,0.38
2023-11-30T23:31:08.023Z,0.29
2023-11-30T23:33:34.789Z,0.40
2023-11-30T23:36:01.275Z,0.33
2023-11-30T23:38:27.977Z,0.34
2023-11-30T23:40:54.562Z,0.21
2023-11-30T23:43:21.276Z,0.18
2023-11-30T23:45:47.986Z,0.13
2023-11-30T23:48:14.734Z,0.13
2023-11-30T23:50:41.206Z,0.21
2023-11-30T23:53:07.720Z,0.23
2023-11-30T23:55:34.308Z,0.16
2023-11-30T23:58:01.062Z,0.06
